sensor_id;sensor_type;location;lat;lon;timestamp;P1;durP1;ratioP1;P2;durP2;ratioP2
39694;SDS011;25367;-35.352;149.036;2023-03-01T00:01:56;5.97;;;4.88;;
39694;SDS011;25367;-35.352;149.036;2023-03-01T00:04:27;4.47;;;4.03;;
39694;SDS011;25367;-35.352;149.036;2023-03-01T00:06:57;7.03;;;4.82;;
39694;SDS011;25367;-35.352;149.036;2023-03-01T00:09:26;6.57;;;4.60;;
39694;SDS011;25367;-35.352;149.036;2023-03-01T00:11:56;5.90;;;4.20;;
39694;SDS011;25367;-35.352;149.036;2023-03-01T00:14:25;5.85;;;4.55;;
39694;SDS011;25367;-35.352;149.036;2023-03-01T00:16:55;8.13;;;4.60;;
39694;SDS011;25367;-35.352;149.036;2023-03-01T00:19:26;5.60;;;4.60;;
39694;SDS011;25367;-35.352;149.036;2023-03-01T00:21:56;6.72;;;4.10;;
39694;SDS011;25367;-35.352;149.036;2023-03-01T00:24:26;6.95;;;4.50;;
39694;SDS011;25367;-35.352;149.036;2023-03-01T00:26:55;6.47;;;4.38;;
39694;SDS011;25367;-35.352;149.036;2023-03-01T00:29:25;4.88;;;3.85;;
39694;SDS011;25367;-35.352;149.036;2023-03-01T00:31:56;6.28;;;4.45;;
39694;SDS011;25367;-35.352;149.036;2023-03-01T00:34:27;6.38;;;4.82;;
39694;SDS011;25367;-35.352;149.036;2023-03-01T00:36:56;6.10;;;4.53;;
39694;SDS011;25367;-35.352;149.036;2023-03-01T00:39:26;5.68;;;4.70;;
39694;SDS011;25367;-35.352;149.036;2023-03-01T00:41:56;5.55;;;4.40;;
39694;SDS011;25367;-35.352;149.036;2023-03-01T00:44:26;5.38;;;4.10;;
39694;SDS011;25367;-35.352;149.036;2023-03-01T00:46:55;5.05;;;4.40;;
39694;SDS011;25367;-35.352;149.036;2023-03-01T00:49:27;6.68;;;4.18;;
39694;SDS011;25367;-35.352;149.036;2023-03-01T00:51:57;4.63;;;3.90;;
39694;SDS011;25367;-35.352;149.036;2023-03-01T00:54:26;5.45;;;4.43;;
39694;SDS011;25367;-35.352;149.036;2023-03-01T00:56:56;5.10;;;3.88;;
39694;SDS011;25367;-35.352;149.036;2023-03-01T00:59:26;6.30;;;4.65;;
39694;SDS011;25367;-35.352;149.036;2023-03-01T01:01:55;5.50;;;3.72;;
39694;SDS011;25367;-35.352;149.036;2023-03-01T01:04:26;5.57;;;3.78;;
39694;SDS011;25367;-35.352;149.036;2023-03-01T01:06:56;5.70;;;4.22;;
39694;SDS011;25367;-35.352;149.036;2023-03-01T01:09:25;4.90;;;3.60;;
39694;SDS011;25367;-35.352;149.036;2023-03-01T01:11:55;5.60;;;3.80;;
39694;SDS011;25367;-35.352;149.036;2023-03-01T01:14:24;9.57;;;3.90;;
39694;SDS011;25367;-35.352;149.036;2023-03-01T01:16:55;5.95;;;3.92;;
39694;SDS011;25367;-35.352;149.036;2023-03-01T01:19:27;4.88;;;3.53;;
39694;SDS011;25367;-35.352;149.036;2023-03-01T01:21:56;5.43;;;3.92;;
39694;SDS011;25367;-35.352;149.036;2023-03-01T01:24:26;4.47;;;3.80;;
39694;SDS011;25367;-35.352;149.036;2023-03-01T01:26:55;4.72;;;3.22;;
39694;SDS011;25367;-35.352;149.036;2023-03-01T01:29:25;5.88;;;3.78;;
39694;SDS011;25367;-35.352;149.036;2023-03-01T01:31:54;5.10;;;3.85;;
39694;SDS011;25367;-35.352;149.036;2023-03-01T01:34:23;6.38;;;3.10;;
39694;SDS011;25367;-35.352;149.036;2023-03-01T01:36:55;5.18;;;3.38;;
39694;SDS011;25367;-35.352;149.036;2023-03-01T01:39:25;4.28;;;3.25;;
39694;SDS011;25367;-35.352;149.036;2023-03-01T01:41:54;5.85;;;3.25;;
39694;SDS011;25367;-35.352;149.036;2023-03-01T01:44:24;4.38;;;3.30;;
39694;SDS011;25367;-35.352;149.036;2023-03-01T01:46:55;5.55;;;3.70;;
39694;SDS011;25367;-35.352;149.036;2023-03-01T01:52:18;6.05;;;3.42;;
39694;SDS011;25367;-35.352;149.036;2023-03-01T01:54:50;8.15;;;3.28;;
39694;SDS011;25367;-35.352;149.036;2023-03-01T01:57:25;7.03;;;3.67;;
39694;SDS011;25367;-35.352;149.036;2023-03-01T01:59:58;4.82;;;3.17;;
39694;SDS011;25367;-35.352;149.036;2023-03-01T02:02:40;4.65;;;3.20;;
39694;SDS011;25367;-35.352;149.036;2023-03-01T02:05:17;4.85;;;3.03;;
39694;SDS011;25367;-35.352;149.036;2023-03-01T02:07:54;6.05;;;3.10;;
39694;SDS011;25367;-35.352;149.036;2023-03-01T02:10:24;4.55;;;3.03;;
39694;SDS011;25367;-35.352;149.036;2023-03-01T02:12:55;7.20;;;3.03;;
39694;SDS011;25367;-35.352;149.036;2023-03-01T02:15:25;4.10;;;2.67;;
39694;SDS011;25367;-35.352;149.036;2023-03-01T02:17:59;5.78;;;2.80;;
39694;SDS011;25367;-35.352;149.036;2023-03-01T02:20:33;8.40;;;3.00;;
39694;SDS011;25367;-35.352;149.036;2023-03-01T02:23:07;4.45;;;2.85;;
39694;SDS011;25367;-35.352;149.036;2023-03-01T02:25:40;7.40;;;2.75;;
39694;SDS011;25367;-35.352;149.036;2023-03-01T02:28:24;4.95;;;3.17;;
39694;SDS011;25367;-35.352;149.036;2023-03-01T02:30:57;5.55;;;3.00;;
39694;SDS011;25367;-35.352;149.036;2023-03-01T02:33:26;3.53;;;2.78;;
39694;SDS011;25367;-35.352;149.036;2023-03-01T02:35:57;6.57;;;3.00;;
39694;SDS011;25367;-35.352;149.036;2023-03-01T02:38:28;4.47;;;2.80;;
39694;SDS011;25367;-35.352;149.036;2023-03-01T02:40:58;5.28;;;2.80;;
39694;SDS011;25367;-35.352;149.036;2023-03-01T02:43:31;5.60;;;3.00;;
39694;SDS011;25367;-35.352;149.036;2023-03-01T02:46:03;3.80;;;2.40;;
39694;SDS011;25367;-35.352;149.036;2023-03-01T02:48:41;5.50;;;2.78;;
39694;SDS011;25367;-35.352;149.036;2023-03-01T02:51:17;7.82;;;2.90;;
39694;SDS011;25367;-35.352;149.036;2023-03-01T02:53:56;4.22;;;2.53;;
39694;SDS011;25367;-35.352;149.036;2023-03-01T02:56:35;4.55;;;2.40;;
39694;SDS011;25367;-35.352;149.036;2023-03-01T02:59:07;5.40;;;2.72;;
39694;SDS011;25367;-35.352;149.036;2023-03-01T03:01:38;3.13;;;2.40;;
39694;SDS011;25367;-35.352;149.036;2023-03-01T03:04:09;15.00;;;2.90;;
39694;SDS011;25367;-35.352;149.036;2023-03-01T03:06:41;5.20;;;2.90;;
39694;SDS011;25367;-35.352;149.036;2023-03-01T03:09:11;3.53;;;2.47;;
39694;SDS011;25367;-35.352;149.036;2023-03-01T03:11:42;6.28;;;2.67;;
39694;SDS011;25367;-35.352;149.036;2023-03-01T03:14:15;8.60;;;3.03;;
39694;SDS011;25367;-35.352;149.036;2023-03-01T03:16:48;7.35;;;2.95;;
39694;SDS011;25367;-35.352;149.036;2023-03-01T03:19:18;4.22;;;2.83;;
39694;SDS011;25367;-35.352;149.036;2023-03-01T03:21:47;8.48;;;2.78;;
39694;SDS011;25367;-35.352;149.036;2023-03-01T03:24:17;6.47;;;2.50;;
39694;SDS011;25367;-35.352;149.036;2023-03-01T03:26:46;6.15;;;2.67;;
39694;SDS011;25367;-35.352;149.036;2023-03-01T03:29:18;5.95;;;2.47;;
39694;SDS011;25367;-35.352;149.036;2023-03-01T03:31:47;5.93;;;2.47;;
39694;SDS011;25367;-35.352;149.036;2023-03-01T03:34:16;5.45;;;2.30;;
39694;SDS011;25367;-35.352;149.036;2023-03-01T03:36:46;11.63;;;3.00;;
39694;SDS011;25367;-35.352;149.036;2023-03-01T03:39:15;3.83;;;2.25;;
39694;SDS011;25367;-35.352;149.036;2023-03-01T03:41:45;5.82;;;2.45;;
39694;SDS011;25367;-35.352;149.036;2023-03-01T03:44:14;6.38;;;2.28;;
39694;SDS011;25367;-35.352;149.036;2023-03-01T03:46:45;3.75;;;2.67;;
39694;SDS011;25367;-35.352;149.036;2023-03-01T03:49:15;5.97;;;2.55;;
39694;SDS011;25367;-35.352;149.036;2023-03-01T03:51:45;7.13;;;2.25;;
39694;SDS011;25367;-35.352;149.036;2023-03-01T03:54:15;4.10;;;2.10;;
39694;SDS011;25367;-35.352;149.036;2023-03-01T03:56:44;2.80;;;2.03;;
39694;SDS011;25367;-35.352;149.036;2023-03-01T03:59:13;5.50;;;2.90;;
39694;SDS011;25367;-35.352;149.036;2023-03-01T04:01:45;9.93;;;2.53;;
39694;SDS011;25367;-35.352;149.036;2023-03-01T04:04:14;3.85;;;2.15;;
39694;SDS011;25367;-35.352;149.036;2023-03-01T04:06:44;9.40;;;2.97;;
39694;SDS011;25367;-35.352;149.036;2023-03-01T04:09:13;5.82;;;2.55;;
39694;SDS011;25367;-35.352;149.036;2023-03-01T04:11:43;6.93;;;2.60;;
39694;SDS011;25367;-35.352;149.036;2023-03-01T04:14:12;8.40;;;2.97;;
39694;SDS011;25367;-35.352;149.036;2023-03-01T04:16:41;4.45;;;2.00;;
39694;SDS011;25367;-35.352;149.036;2023-03-01T04:19:13;2.72;;;1.90;;
39694;SDS011;25367;-35.352;149.036;2023-03-01T04:21:42;2.28;;;1.70;;
39694;SDS011;25367;-35.352;149.036;2023-03-01T04:24:12;4.25;;;1.85;;
39694;SDS011;25367;-35.352;149.036;2023-03-01T04:26:41;3.20;;;2.00;;
39694;SDS011;25367;-35.352;149.036;2023-03-01T04:29:11;7.13;;;2.75;;
39694;SDS011;25367;-35.352;149.036;2023-03-01T04:31:40;12.60;;;2.67;;
39694;SDS011;25367;-35.352;149.036;2023-03-01T04:34:13;7.05;;;2.47;;
39694;SDS011;25367;-35.352;149.036;2023-03-01T04:36:43;8.68;;;2.10;;
39694;SDS011;25367;-35.352;149.036;2023-03-01T04:39:12;8.63;;;3.10;;
39694;SDS011;25367;-35.352;149.036;2023-03-01T04:41:42;6.45;;;2.45;;
39694;SDS011;25367;-35.352;149.036;2023-03-01T04:44:11;9.30;;;2.85;;
39694;SDS011;25367;-35.352;149.036;2023-03-01T04:46:41;8.77;;;2.38;;
39694;SDS011;25367;-35.352;149.036;2023-03-01T04:49:12;7.38;;;2.00;;
39694;SDS011;25367;-35.352;149.036;2023-03-01T04:51:41;7.93;;;2.50;;
39694;SDS011;25367;-35.352;149.036;2023-03-01T04:54:11;4.22;;;2.03;;
39694;SDS011;25367;-35.352;149.036;2023-03-01T04:56:40;5.18;;;1.90;;
39694;SDS011;25367;-35.352;149.036;2023-03-01T04:59:09;5.10;;;2.30;;
39694;SDS011;25367;-35.352;149.036;2023-03-01T05:01:39;7.90;;;2.42;;
39694;SDS011;25367;-35.352;149.036;2023-03-01T05:04:08;3.45;;;2.17;;
39694;SDS011;25367;-35.352;149.036;2023-03-01T05:06:39;7.03;;;2.40;;
39694;SDS011;25367;-35.352;149.036;2023-03-01T05:09:09;2.65;;;1.75;;
39694;SDS011;25367;-35.352;149.036;2023-03-01T05:11:38;3.25;;;1.70;;
39694;SDS011;25367;-35.352;149.036;2023-03-01T05:14:08;4.15;;;2.10;;
39694;SDS011;25367;-35.352;149.036;2023-03-01T05:16:38;5.85;;;1.73;;
39694;SDS011;25367;-35.352;149.036;2023-03-01T05:19:07;3.92;;;2.15;;
39694;SDS011;25367;-35.352;149.036;2023-03-01T05:21:39;2.28;;;1.70;;
39694;SDS011;25367;-35.352;149.036;2023-03-01T05:24:09;4.30;;;2.10;;
39694;SDS011;25367;-35.352;149.036;2023-03-01T05:26:38;6.72;;;2.08;;
39694;SDS011;25367;-35.352;149.036;2023-03-01T05:29:07;5.07;;;2.40;;
39694;SDS011;25367;-35.352;149.036;2023-03-01T05:31:37;7.32;;;2.65;;
39694;SDS011;25367;-35.352;149.036;2023-03-01T05:34:06;6.25;;;2.25;;
39694;SDS011;25367;-35.352;149.036;2023-03-01T05:36:36;5.15;;;2.03;;
39694;SDS011;25367;-35.352;149.036;2023-03-01T05:39:07;7.97;;;2.38;;
39694;SDS011;25367;-35.352;149.036;2023-03-01T05:41:36;4.55;;;2.05;;
39694;SDS011;25367;-35.352;149.036;2023-03-01T05:44:06;6.70;;;2.35;;
39694;SDS011;25367;-35.352;149.036;2023-03-01T05:46:36;11.38;;;2.00;;
39694;SDS011;25367;-35.352;149.036;2023-03-01T05:49:05;7.50;;;2.30;;
39694;SDS011;25367;-35.352;149.036;2023-03-01T05:51:34;8.25;;;2.13;;
39694;SDS011;25367;-35.352;149.036;2023-03-01T05:54:06;6.50;;;1.92;;
39694;SDS011;25367;-35.352;149.036;2023-03-01T05:56:36;4.50;;;2.08;;
39694;SDS011;25367;-35.352;149.036;2023-03-01T05:59:06;15.15;;;2.40;;
39694;SDS011;25367;-35.352;149.036;2023-03-01T06:01:35;4.00;;;1.83;;
39694;SDS011;25367;-35.352;149.036;2023-03-01T06:04:05;6.45;;;1.85;;
39694;SDS011;25367;-35.352;149.036;2023-03-01T06:06:35;5.60;;;2.03;;
39694;SDS011;25367;-35.352;149.036;2023-03-01T06:09:06;5.57;;;1.70;;
39694;SDS011;25367;-35.352;149.036;2023-03-01T06:11:36;4.63;;;2.05;;
39694;SDS011;25367;-35.352;149.036;2023-03-01T06:14:07;7.15;;;2.08;;
39694;SDS011;25367;-35.352;149.036;2023-03-01T06:16:37;12.70;;;2.45;;
39694;SDS011;25367;-35.352;149.036;2023-03-01T06:19:06;9.65;;;2.55;;
39694;SDS011;25367;-35.352;149.036;2023-03-01T06:21:36;4.47;;;1.95;;
39694;SDS011;25367;-35.352;149.036;2023-03-01T06:24:07;5.30;;;2.05;;
39694;SDS011;25367;-35.352;149.036;2023-03-01T06:26:36;4.85;;;1.75;;
39694;SDS011;25367;-35.352;149.036;2023-03-01T06:29:06;6.20;;;1.80;;
39694;SDS011;25367;-35.352;149.036;2023-03-01T06:31:35;9.27;;;1.90;;
39694;SDS011;25367;-35.352;149.036;2023-03-01T06:34:05;4.63;;;1.48;;
39694;SDS011;25367;-35.352;149.036;2023-03-01T06:36:34;5.18;;;1.65;;
39694;SDS011;25367;-35.352;149.036;2023-03-01T06:39:03;2.45;;;1.75;;
39694;SDS011;25367;-35.352;149.036;2023-03-01T06:41:35;3.72;;;1.50;;
39694;SDS011;25367;-35.352;149.036;2023-03-01T06:44:04;3.47;;;1.55;;
39694;SDS011;25367;-35.352;149.036;2023-03-01T06:46:34;4.50;;;1.63;;
39694;SDS011;25367;-35.352;149.036;2023-03-01T06:49:03;4.13;;;1.40;;
39694;SDS011;25367;-35.352;149.036;2023-03-01T06:51:32;11.77;;;2.22;;
39694;SDS011;25367;-35.352;149.036;2023-03-01T06:54:02;4.68;;;1.80;;
39694;SDS011;25367;-35.352;149.036;2023-03-01T06:56:35;5.80;;;1.98;;
39694;SDS011;25367;-35.352;149.036;2023-03-01T06:59:04;4.53;;;1.55;;
39694;SDS011;25367;-35.352;149.036;2023-03-01T07:01:34;9.75;;;2.03;;
39694;SDS011;25367;-35.352;149.036;2023-03-01T07:04:03;4.90;;;1.80;;
39694;SDS011;25367;-35.352;149.036;2023-03-01T07:06:32;11.10;;;2.03;;
39694;SDS011;25367;-35.352;149.036;2023-03-01T07:09:02;3.67;;;1.70;;
39694;SDS011;25367;-35.352;149.036;2023-03-01T07:11:34;9.90;;;1.75;;
39694;SDS011;25367;-35.352;149.036;2023-03-01T07:14:04;3.47;;;1.60;;
39694;SDS011;25367;-35.352;149.036;2023-03-01T07:16:33;18.30;;;2.15;;
39694;SDS011;25367;-35.352;149.036;2023-03-01T07:19:03;15.75;;;2.90;;
39694;SDS011;25367;-35.352;149.036;2023-03-01T07:21:32;48.25;;;4.70;;
39694;SDS011;25367;-35.352;149.036;2023-03-01T07:24:02;18.83;;;3.97;;
39694;SDS011;25367;-35.352;149.036;2023-03-01T07:26:34;32.15;;;5.43;;
39694;SDS011;25367;-35.352;149.036;2023-03-01T07:29:05;37.42;;;9.90;;
39694;SDS011;25367;-35.352;149.036;2023-03-01T07:31:36;21.55;;;8.25;;
39694;SDS011;25367;-35.352;149.036;2023-03-01T07:34:06;20.30;;;7.65;;
39694;SDS011;25367;-35.352;149.036;2023-03-01T07:36:36;19.77;;;6.72;;
39694;SDS011;25367;-35.352;149.036;2023-03-01T07:39:05;23.17;;;8.05;;
39694;SDS011;25367;-35.352;149.036;2023-03-01T07:41:38;24.17;;;8.43;;
39694;SDS011;25367;-35.352;149.036;2023-03-01T07:44:07;21.13;;;6.85;;
39694;SDS011;25367;-35.352;149.036;2023-03-01T07:46:37;15.52;;;6.63;;
39694;SDS011;25367;-35.352;149.036;2023-03-01T07:49:06;16.63;;;6.40;;
39694;SDS011;25367;-35.352;149.036;2023-03-01T07:51:35;17.38;;;6.25;;
39694;SDS011;25367;-35.352;149.036;2023-03-01T07:54:05;20.00;;;5.85;;
39694;SDS011;25367;-35.352;149.036;2023-03-01T07:56:38;12.35;;;4.72;;
39694;SDS011;25367;-35.352;149.036;2023-03-01T07:59:08;12.43;;;3.90;;
39694;SDS011;25367;-35.352;149.036;2023-03-01T08:01:37;10.93;;;4.47;;
39694;SDS011;25367;-35.352;149.036;2023-03-01T08:04:07;20.80;;;5.32;;
39694;SDS011;25367;-35.352;149.036;2023-03-01T08:06:36;12.27;;;3.63;;
39694;SDS011;25367;-35.352;149.036;2023-03-01T08:09:06;11.80;;;3.50;;
39694;SDS011;25367;-35.352;149.036;2023-03-01T08:11:38;11.00;;;3.67;;
39694;SDS011;25367;-35.352;149.036;2023-03-01T08:14:08;8.48;;;3.42;;
39694;SDS011;25367;-35.352;149.036;2023-03-01T08:16:37;7.78;;;3.72;;
39694;SDS011;25367;-35.352;149.036;2023-03-01T08:19:07;9.32;;;3.03;;
39694;SDS011;25367;-35.352;149.036;2023-03-01T08:21:37;9.20;;;3.03;;
39694;SDS011;25367;-35.352;149.036;2023-03-01T08:24:07;9.25;;;2.30;;
39694;SDS011;25367;-35.352;149.036;2023-03-01T08:26:40;9.90;;;2.55;;
39694;SDS011;25367;-35.352;149.036;2023-03-01T08:29:09;6.30;;;2.40;;
39694;SDS011;25367;-35.352;149.036;2023-03-01T08:31:39;9.23;;;1.60;;
39694;SDS011;25367;-35.352;149.036;2023-03-01T08:34:09;4.40;;;1.52;;
39694;SDS011;25367;-35.352;149.036;2023-03-01T08:36:40;5.07;;;1.63;;
39694;SDS011;25367;-35.352;149.036;2023-03-01T08:39:11;4.47;;;1.33;;
39694;SDS011;25367;-35.352;149.036;2023-03-01T08:41:45;5.15;;;1.45;;
39694;SDS011;25367;-35.352;149.036;2023-03-01T08:44:14;6.55;;;1.27;;
39694;SDS011;25367;-35.352;149.036;2023-03-01T08:46:44;3.83;;;1.17;;
39694;SDS011;25367;-35.352;149.036;2023-03-01T08:49:14;2.80;;;1.10;;
39694;SDS011;25367;-35.352;149.036;2023-03-01T08:51:46;2.97;;;1.08;;
39694;SDS011;25367;-35.352;149.036;2023-03-01T08:54:16;2.40;;;1.20;;
39694;SDS011;25367;-35.352;149.036;2023-03-01T08:56:48;2.13;;;0.70;;
39694;SDS011;25367;-35.352;149.036;2023-03-01T08:59:18;4.78;;;0.98;;
39694;SDS011;25367;-35.352;149.036;2023-03-01T09:01:47;3.95;;;1.10;;
39694;SDS011;25367;-35.352;149.036;2023-03-01T09:04:17;2.55;;;0.90;;
39694;SDS011;25367;-35.352;149.036;2023-03-01T09:06:46;4.60;;;0.95;;
39694;SDS011;25367;-35.352;149.036;2023-03-01T09:09:16;3.10;;;0.90;;
39694;SDS011;25367;-35.352;149.036;2023-03-01T09:11:46;1.75;;;0.70;;
39694;SDS011;25367;-35.352;149.036;2023-03-01T09:14:18;3.60;;;0.90;;
39694;SDS011;25367;-35.352;149.036;2023-03-01T09:16:48;3.70;;;0.90;;
39694;SDS011;25367;-35.352;149.036;2023-03-01T09:19:17;7.03;;;1.02;;
39694;SDS011;25367;-35.352;149.036;2023-03-01T09:21:47;1.65;;;0.80;;
39694;SDS011;25367;-35.352;149.036;2023-03-01T09:24:16;2.35;;;0.80;;
39694;SDS011;25367;-35.352;149.036;2023-03-01T09:26:46;1.70;;;0.90;;
39694;SDS011;25367;-35.352;149.036;2023-03-01T09:29:20;2.58;;;0.98;;
39694;SDS011;25367;-35.352;149.036;2023-03-01T09:31:50;2.53;;;0.80;;
39694;SDS011;25367;-35.352;149.036;2023-03-01T09:34:19;2.60;;;0.75;;
39694;SDS011;25367;-35.352;149.036;2023-03-01T09:36:49;2.47;;;0.70;;
39694;SDS011;25367;-35.352;149.036;2023-03-01T09:39:18;2.95;;;0.70;;
39694;SDS011;25367;-35.352;149.036;2023-03-01T09:41:53;2.05;;;0.88;;
39694;SDS011;25367;-35.352;149.036;2023-03-01T09:44:30;3.38;;;1.05;;
39694;SDS011;25367;-35.352;149.036;2023-03-01T09:47:03;0.90;;;0.50;;
39694;SDS011;25367;-35.352;149.036;2023-03-01T09:49:38;2.80;;;0.77;;
39694;SDS011;25367;-35.352;149.036;2023-03-01T09:52:11;1.55;;;0.70;;
39694;SDS011;25367;-35.352;149.036;2023-03-01T09:54:52;1.58;;;0.90;;
39694;SDS011;25367;-35.352;149.036;2023-03-01T09:57:28;3.33;;;0.90;;
39694;SDS011;25367;-35.352;149.036;2023-03-01T10:00:09;2.45;;;0.70;;
39694;SDS011;25367;-35.352;149.036;2023-03-01T10:02:46;1.20;;;0.50;;
39694;SDS011;25367;-35.352;149.036;2023-03-01T10:05:25;1.48;;;0.77;;
39694;SDS011;25367;-35.352;149.036;2023-03-01T10:10:57;1.95;;;0.80;;
39694;SDS011;25367;-35.352;149.036;2023-03-01T10:13:33;2.22;;;0.75;;
39694;SDS011;25367;-35.352;149.036;2023-03-01T10:16:13;4.35;;;0.80;;
39694;SDS011;25367;-35.352;149.036;2023-03-01T10:18:45;2.50;;;0.60;;
39694;SDS011;25367;-35.352;149.036;2023-03-01T10:21:19;2.83;;;0.90;;
39694;SDS011;25367;-35.352;149.036;2023-03-01T10:23:50;1.63;;;0.68;;
39694;SDS011;25367;-35.352;149.036;2023-03-01T10:26:33;2.65;;;0.80;;
39694;SDS011;25367;-35.352;149.036;2023-03-01T10:29:17;3.72;;;0.80;;
39694;SDS011;25367;-35.352;149.036;2023-03-01T10:31:49;0.65;;;0.55;;
39694;SDS011;25367;-35.352;149.036;2023-03-01T10:34:21;2.65;;;0.98;;
39694;SDS011;25367;-35.352;149.036;2023-03-01T10:36:56;0.88;;;0.50;;
39694;SDS011;25367;-35.352;149.036;2023-03-01T10:39:28;1.40;;;0.65;;
39694;SDS011;25367;-35.352;149.036;2023-03-01T10:41:58;4.38;;;0.50;;
39694;SDS011;25367;-35.352;149.036;2023-03-01T10:47:22;3.08;;;0.95;;
39694;SDS011;25367;-35.352;149.036;2023-03-01T10:49:54;2.20;;;0.70;;
39694;SDS011;25367;-35.352;149.036;2023-03-01T10:52:27;2.67;;;0.68;;
39694;SDS011;25367;-35.352;149.036;2023-03-01T10:57:35;1.38;;;0.60;;
39694;SDS011;25367;-35.352;149.036;2023-03-01T11:00:21;0.85;;;0.52;;
39694;SDS011;25367;-35.352;149.036;2023-03-01T11:03:01;2.83;;;0.65;;
39694;SDS011;25367;-35.352;149.036;2023-03-01T11:05:49;1.75;;;0.70;;
39694;SDS011;25367;-35.352;149.036;2023-03-01T11:11:18;4.22;;;0.80;;
39694;SDS011;25367;-35.352;149.036;2023-03-01T11:14:03;1.95;;;0.57;;
39694;SDS011;25367;-35.352;149.036;2023-03-01T11:16:38;2.78;;;0.73;;
39694;SDS011;25367;-35.352;149.036;2023-03-01T11:19:17;4.20;;;1.10;;
39694;SDS011;25367;-35.352;149.036;2023-03-01T11:21:53;2.15;;;0.63;;
39694;SDS011;25367;-35.352;149.036;2023-03-01T11:24:29;3.75;;;0.98;;
39694;SDS011;25367;-35.352;149.036;2023-03-01T11:27:08;6.40;;;0.70;;
39694;SDS011;25367;-35.352;149.036;2023-03-01T11:29:47;6.00;;;0.95;;
39694;SDS011;25367;-35.352;149.036;2023-03-01T11:32:25;3.38;;;0.93;;
39694;SDS011;25367;-35.352;149.036;2023-03-01T11:35:02;6.13;;;0.70;;
39694;SDS011;25367;-35.352;149.036;2023-03-01T11:37:37;2.45;;;0.75;;
39694;SDS011;25367;-35.352;149.036;2023-03-01T11:40:13;3.03;;;0.50;;
39694;SDS011;25367;-35.352;149.036;2023-03-01T11:42:52;2.08;;;0.68;;
39694;SDS011;25367;-35.352;149.036;2023-03-01T11:45:33;2.00;;;0.55;;
39694;SDS011;25367;-35.352;149.036;2023-03-01T11:51:22;3.40;;;0.60;;
39694;SDS011;25367;-35.352;149.036;2023-03-01T11:54:12;3.55;;;0.57;;
39694;SDS011;25367;-35.352;149.036;2023-03-01T11:56:51;2.58;;;0.60;;
39694;SDS011;25367;-35.352;149.036;2023-03-01T12:02:42;3.03;;;0.73;;
39694;SDS011;25367;-35.352;149.036;2023-03-01T12:05:47;3.70;;;0.70;;
39694;SDS011;25367;-35.352;149.036;2023-03-01T12:08:27;2.03;;;0.60;;
39694;SDS011;25367;-35.352;149.036;2023-03-01T12:11:02;2.85;;;0.57;;
39694;SDS011;25367;-35.352;149.036;2023-03-01T12:16:53;1.10;;;0.70;;
39694;SDS011;25367;-35.352;149.036;2023-03-01T12:19:39;1.75;;;0.70;;
39694;SDS011;25367;-35.352;149.036;2023-03-01T12:22:25;2.10;;;0.55;;
39694;SDS011;25367;-35.352;149.036;2023-03-01T12:25:13;2.05;;;0.80;;
39694;SDS011;25367;-35.352;149.036;2023-03-01T12:28:03;2.58;;;0.73;;
39694;SDS011;25367;-35.352;149.036;2023-03-01T12:30:53;0.82;;;0.50;;
39694;SDS011;25367;-35.352;149.036;2023-03-01T12:33:52;1.50;;;0.80;;
39694;SDS011;25367;-35.352;149.036;2023-03-01T12:39:25;1.92;;;0.65;;
39694;SDS011;25367;-35.352;149.036;2023-03-01T12:42:08;2.05;;;0.80;;
39694;SDS011;25367;-35.352;149.036;2023-03-01T12:44:50;1.30;;;0.70;;
39694;SDS011;25367;-35.352;149.036;2023-03-01T12:47:43;1.33;;;0.50;;
39694;SDS011;25367;-35.352;149.036;2023-03-01T12:50:32;1.73;;;0.60;;
39694;SDS011;25367;-35.352;149.036;2023-03-01T12:53:21;4.47;;;0.98;;
39694;SDS011;25367;-35.352;149.036;2023-03-01T12:55:53;2.05;;;0.52;;
39694;SDS011;25367;-35.352;149.036;2023-03-01T12:58:30;1.30;;;0.60;;
39694;SDS011;25367;-35.352;149.036;2023-03-01T13:01:08;3.10;;;0.70;;
39694;SDS011;25367;-35.352;149.036;2023-03-01T13:03:52;2.33;;;0.75;;
39694;SDS011;25367;-35.352;149.036;2023-03-01T13:06:37;1.67;;;0.68;;
39694;SDS011;25367;-35.352;149.036;2023-03-01T13:09:13;0.88;;;0.52;;
39694;SDS011;25367;-35.352;149.036;2023-03-01T13:11:50;1.02;;;0.55;;
39694;SDS011;25367;-35.352;149.036;2023-03-01T13:14:39;1.38;;;0.63;;
39694;SDS011;25367;-35.352;149.036;2023-03-01T13:17:32;1.73;;;0.50;;
39694;SDS011;25367;-35.352;149.036;2023-03-01T13:22:42;2.30;;;0.93;;
39694;SDS011;25367;-35.352;149.036;2023-03-01T13:25:13;1.25;;;0.60;;
39694;SDS011;25367;-35.352;149.036;2023-03-01T13:27:44;0.93;;;0.63;;
39694;SDS011;25367;-35.352;149.036;2023-03-01T13:33:33;1.40;;;0.50;;
39694;SDS011;25367;-35.352;149.036;2023-03-01T13:36:10;2.13;;;0.65;;
39694;SDS011;25367;-35.352;149.036;2023-03-01T13:39:00;1.15;;;0.38;;
39694;SDS011;25367;-35.352;149.036;2023-03-01T13:41:49;3.45;;;0.50;;
39694;SDS011;25367;-35.352;149.036;2023-03-01T13:44:30;1.35;;;0.50;;
39694;SDS011;25367;-35.352;149.036;2023-03-01T13:47:08;2.00;;;0.47;;
39694;SDS011;25367;-35.352;149.036;2023-03-01T13:49:45;1.98;;;0.43;;
39694;SDS011;25367;-35.352;149.036;2023-03-01T13:52:30;1.23;;;0.45;;
39694;SDS011;25367;-35.352;149.036;2023-03-01T13:55:06;2.58;;;0.80;;
39694;SDS011;25367;-35.352;149.036;2023-03-01T13:57:46;2.25;;;0.77;;
39694;SDS011;25367;-35.352;149.036;2023-03-01T14:00:32;2.55;;;0.50;;
39694;SDS011;25367;-35.352;149.036;2023-03-01T14:03:08;1.52;;;0.43;;
39694;SDS011;25367;-35.352;149.036;2023-03-01T14:05:42;0.68;;;0.40;;
39694;SDS011;25367;-35.352;149.036;2023-03-01T14:08:25;1.20;;;0.60;;
39694;SDS011;25367;-35.352;149.036;2023-03-01T14:11:03;2.22;;;0.47;;
39694;SDS011;25367;-35.352;149.036;2023-03-01T14:13:54;1.23;;;0.65;;
39694;SDS011;25367;-35.352;149.036;2023-03-01T14:16:36;3.30;;;0.60;;
39694;SDS011;25367;-35.352;149.036;2023-03-01T14:19:18;1.73;;;0.45;;
39694;SDS011;25367;-35.352;149.036;2023-03-01T14:21:58;1.58;;;0.60;;
39694;SDS011;25367;-35.352;149.036;2023-03-01T14:24:31;2.45;;;0.95;;
39694;SDS011;25367;-35.352;149.036;2023-03-01T14:27:05;1.10;;;0.52;;
39694;SDS011;25367;-35.352;149.036;2023-03-01T14:29:39;1.30;;;0.50;;
39694;SDS011;25367;-35.352;149.036;2023-03-01T14:32:15;2.25;;;0.63;;
39694;SDS011;25367;-35.352;149.036;2023-03-01T14:34:51;1.15;;;0.50;;
39694;SDS011;25367;-35.352;149.036;2023-03-01T14:37:21;1.30;;;0.40;;
39694;SDS011;25367;-35.352;149.036;2023-03-01T14:39:53;1.23;;;0.52;;
39694;SDS011;25367;-35.352;149.036;2023-03-01T14:42:23;1.33;;;0.38;;
39694;SDS011;25367;-35.352;149.036;2023-03-01T14:44:55;0.75;;;0.40;;
39694;SDS011;25367;-35.352;149.036;2023-03-01T14:47:28;2.40;;;0.50;;
39694;SDS011;25367;-35.352;149.036;2023-03-01T14:50:04;1.75;;;0.52;;
39694;SDS011;25367;-35.352;149.036;2023-03-01T14:52:36;2.10;;;0.50;;
39694;SDS011;25367;-35.352;149.036;2023-03-01T14:55:13;2.30;;;0.73;;
39694;SDS011;25367;-35.352;149.036;2023-03-01T14:57:48;1.45;;;0.50;;
39694;SDS011;25367;-35.352;149.036;2023-03-01T15:00:19;1.03;;;0.43;;
39694;SDS011;25367;-35.352;149.036;2023-03-01T15:02:51;1.05;;;0.38;;
39694;SDS011;25367;-35.352;149.036;2023-03-01T15:05:27;1.50;;;0.50;;
39694;SDS011;25367;-35.352;149.036;2023-03-01T15:07:59;2.40;;;0.40;;
39694;SDS011;25367;-35.352;149.036;2023-03-01T15:10:31;1.13;;;0.57;;
39694;SDS011;25367;-35.352;149.036;2023-03-01T15:13:12;1.30;;;0.38;;
39694;SDS011;25367;-35.352;149.036;2023-03-01T15:15:49;2.20;;;0.52;;